Česky Dansk Deutsch English Español Suomi Français Magyar Italiano Nederlands norsk Polski Português svenska Türkçe

 

Het Weer

Potosi (Bolivië)

21:00, 20 juli 2016 (GMT)

NWNNE
WE
SWSSE
Home            
Potosi Sucre Oruro Camiri Cochabamba Tarija La Quiaca Observatorio Villamontes Santa Cruz / El Trompillo Yacuiba Viru-Viru Tartagal Aerodrome Nueva Asuncion La Paz / Alto Oran Aerodrome Charana Iquique / Diego Arac Arica San Javier Tacna Ascencion De Guarayos San Ignacio De Moxos Trinidad

Om een weerknop op uw website of weblog te plaatsen, copieer onderstaande code en plak die in uw pagina. In het eerste vakje staat HTML-code, in het tweede vakje UBB-code.


Add to Google

Details

Wind speed:2 bf, 6 kn, 3.1 m/s, 6.9 miles/h, 11.1 km/h
Wind direction:WSW, 240°
Visibility:Greater than 10000 m, 10 km, 32800 ft, 6.2 miles
Temperature:14°C, 57°F
Dew-point:-4°C, 25°F
Atmospheric pressure:1035 hPa, 776.3 mmHg, 30.56 inHg, 1.021 atm
Relative humidity:28.4 %
METAR:SLPO 202100Z 24006KT 9999 NSC 14/M04 Q1035

Snelkoppelingen

Actuele weersinformatie van de hele wereld. Voeg locaties toe met het plus (+) symbool. Deze snelkoppelingen kunnen worden toegevoegd aan Google.

Lid van de Technetium groep

website free tracking
StatCounter NetStat W3C Validator

24-11-2020 09:45:10
astro.technetium.be money.technetium.be phote.technetium.be tafeltennistafel.technetium.be www.ligfiets.net